sensor_id;sensor_type;location;lat;lon;timestamp;pressure;altitude;pressure_sealevel;temperature;humidity
60373;BME280;46216;52.220;5.134;2022-11-20T00:01:18;101584.88;;;-0.89;100.00
60373;BME280;46216;52.220;5.134;2022-11-20T00:03:45;101591.91;;;-0.91;100.00
60373;BME280;46216;52.220;5.134;2022-11-20T00:06:13;101598.88;;;-0.90;100.00
60373;BME280;46216;52.220;5.134;2022-11-20T00:08:38;101598.88;;;-0.90;100.00
60373;BME280;46216;52.220;5.134;2022-11-20T00:11:12;101606.75;;;-0.93;100.00
60373;BME280;46216;52.220;5.134;2022-11-20T00:13:38;101600.63;;;-0.92;100.00
60373;BME280;46216;52.220;5.134;2022-11-20T00:16:05;101598.03;;;-0.94;100.00
60373;BME280;46216;52.220;5.134;2022-11-20T00:18:32;101590.19;;;-0.96;100.00
60373;BME280;46216;52.220;5.134;2022-11-20T00:21:07;101585.00;;;-0.99;100.00
60373;BME280;46216;52.220;5.134;2022-11-20T00:23:33;101593.75;;;-1.00;100.00
60373;BME280;46216;52.220;5.134;2022-11-20T00:26:06;101591.19;;;-1.06;100.00
60373;BME280;46216;52.220;5.134;2022-11-20T00:28:32;101593.81;;;-1.06;100.00
60373;BME280;46216;52.220;5.134;2022-11-20T00:31:02;101588.63;;;-1.09;100.00
60373;BME280;46216;52.220;5.134;2022-11-20T00:33:28;101588.63;;;-1.09;100.00
60373;BME280;46216;52.220;5.134;2022-11-20T00:35:59;101574.78;;;-1.15;100.00
60373;BME280;46216;52.220;5.134;2022-11-20T00:38:24;101580.03;;;-1.20;100.00
60373;BME280;46216;52.220;5.134;2022-11-20T00:40:55;101589.69;;;-1.24;100.00
60373;BME280;46216;52.220;5.134;2022-11-20T00:43:20;101584.50;;;-1.28;100.00
60373;BME280;46216;52.220;5.134;2022-11-20T00:45:46;101578.47;;;-1.33;100.00
60373;BME280;46216;52.220;5.134;2022-11-20T00:48:11;101570.66;;;-1.36;100.00
60373;BME280;46216;52.220;5.134;2022-11-20T00:50:36;101568.03;;;-1.35;100.00
60373;BME280;46216;52.220;5.134;2022-11-20T00:53:01;101575.88;;;-1.35;100.00
60373;BME280;46216;52.220;5.134;2022-11-20T00:55:27;101575.03;;;-1.38;100.00
60373;BME280;46216;52.220;5.134;2022-11-20T00:57:53;101576.81;;;-1.40;100.00
60373;BME280;46216;52.220;5.134;2022-11-20T01:00:18;101570.72;;;-1.41;100.00
60373;BME280;46216;52.220;5.134;2022-11-20T01:02:43;101571.56;;;-1.40;100.00
60373;BME280;46216;52.220;5.134;2022-11-20T01:05:09;101573.28;;;-1.39;100.00
60373;BME280;46216;52.220;5.134;2022-11-20T01:07:34;101576.78;;;-1.37;100.00
60373;BME280;46216;52.220;5.134;2022-11-20T01:09:59;101574.16;;;-1.37;100.00
60373;BME280;46216;52.220;5.134;2022-11-20T01:12:24;101578.50;;;-1.36;100.00
60373;BME280;46216;52.220;5.134;2022-11-20T01:14:50;101576.72;;;-1.36;100.00
60373;BME280;46216;52.220;5.134;2022-11-20T01:17:15;101575.84;;;-1.33;100.00
60373;BME280;46216;52.220;5.134;2022-11-20T01:19:40;101572.38;;;-1.32;100.00
60373;BME280;46216;52.220;5.134;2022-11-20T01:22:06;101571.63;;;-1.45;100.00
60373;BME280;46216;52.220;5.134;2022-11-20T01:24:31;101568.16;;;-1.46;100.00
60373;BME280;46216;52.220;5.134;2022-11-20T01:26:56;101568.13;;;-1.44;100.00
60373;BME280;46216;52.220;5.134;2022-11-20T01:29:23;101562.91;;;-1.42;100.00
60373;BME280;46216;52.220;5.134;2022-11-20T01:31:49;101555.91;;;-1.42;100.00
60373;BME280;46216;52.220;5.134;2022-11-20T01:34:17;101548.94;;;-1.41;100.00
60373;BME280;46216;52.220;5.134;2022-11-20T01:36:43;101559.41;;;-1.41;100.00
60373;BME280;46216;52.220;5.134;2022-11-20T01:39:17;101559.41;;;-1.41;100.00
60373;BME280;46216;52.220;5.134;2022-11-20T01:41:44;101554.16;;;-1.41;100.00
60373;BME280;46216;52.220;5.134;2022-11-20T01:44:48;101549.88;;;-1.46;100.00
60373;BME280;46216;52.220;5.134;2022-11-20T01:47:21;101551.59;;;-1.46;100.00
60373;BME280;46216;52.220;5.134;2022-11-20T01:49:54;101559.47;;;-1.48;100.00
60373;BME280;46216;52.220;5.134;2022-11-20T01:52:24;101555.16;;;-1.52;100.00
60373;BME280;46216;52.220;5.134;2022-11-20T01:54:54;101556.06;;;-1.56;100.00
60373;BME280;46216;52.220;5.134;2022-11-20T01:57:23;101557.81;;;-1.58;100.00
60373;BME280;46216;52.220;5.134;2022-11-20T01:59:58;101550.88;;;-1.59;100.00
60373;BME280;46216;52.220;5.134;2022-11-20T02:02:25;101550.84;;;-1.57;100.00
60373;BME280;46216;52.220;5.134;2022-11-20T02:04:51;101552.56;;;-1.55;100.00
60373;BME280;46216;52.220;5.134;2022-11-20T02:07:20;101555.25;;;-1.59;100.00
60373;BME280;46216;52.220;5.134;2022-11-20T02:09:46;101549.25;;;-1.69;100.00
60373;BME280;46216;52.220;5.134;2022-11-20T02:12:11;101550.13;;;-1.69;100.00
60373;BME280;46216;52.220;5.134;2022-11-20T02:14:56;101543.16;;;-1.70;100.00
60373;BME280;46216;52.220;5.134;2022-11-20T02:17:23;101530.13;;;-1.74;100.00
60373;BME280;46216;52.220;5.134;2022-11-20T02:19:48;101526.66;;;-1.73;100.00
60373;BME280;46216;52.220;5.134;2022-11-20T02:22:37;101530.13;;;-1.74;100.00
60373;BME280;46216;52.220;5.134;2022-11-20T02:25:06;101537.03;;;-1.70;100.00
60373;BME280;46216;52.220;5.134;2022-11-20T02:27:32;101530.97;;;-1.71;100.00
60373;BME280;46216;52.220;5.134;2022-11-20T02:34:50;101531.78;;;-1.67;100.00
60373;BME280;46216;52.220;5.134;2022-11-20T02:37:15;101528.34;;;-1.69;100.00
60373;BME280;46216;52.220;5.134;2022-11-20T02:39:41;101526.59;;;-1.70;100.00
60373;BME280;46216;52.220;5.134;2022-11-20T02:42:08;101521.41;;;-1.72;100.00
60373;BME280;46216;52.220;5.134;2022-11-20T02:44:33;101526.59;;;-1.70;100.00
60373;BME280;46216;52.220;5.134;2022-11-20T02:46:58;101533.59;;;-1.72;100.00
60373;BME280;46216;52.220;5.134;2022-11-20T02:49:24;101531.00;;;-1.74;100.00
60373;BME280;46216;52.220;5.134;2022-11-20T02:51:50;101524.06;;;-1.78;100.00
60373;BME280;46216;52.220;5.134;2022-11-20T02:54:15;101530.16;;;-1.77;100.00
60373;BME280;46216;52.220;5.134;2022-11-20T02:56:40;101531.91;;;-1.76;100.00
60373;BME280;46216;52.220;5.134;2022-11-20T02:59:06;101531.03;;;-1.77;100.00
60373;BME280;46216;52.220;5.134;2022-11-20T03:01:32;101525.81;;;-1.78;100.00
60373;BME280;46216;52.220;5.134;2022-11-20T03:03:57;101521.50;;;-1.79;100.00
60373;BME280;46216;52.220;5.134;2022-11-20T03:06:22;101514.50;;;-1.80;100.00
60373;BME280;46216;52.220;5.134;2022-11-20T03:08:48;101517.97;;;-1.78;100.00
60373;BME280;46216;52.220;5.134;2022-11-20T03:11:13;101516.22;;;-1.76;100.00
60373;BME280;46216;52.220;5.134;2022-11-20T03:13:38;101507.50;;;-1.77;100.00
60373;BME280;46216;52.220;5.134;2022-11-20T03:16:06;101508.41;;;-1.78;100.00
60373;BME280;46216;52.220;5.134;2022-11-20T03:18:32;101503.19;;;-1.79;100.00
60373;BME280;46216;52.220;5.134;2022-11-20T03:20:58;101504.91;;;-1.78;100.00
60373;BME280;46216;52.220;5.134;2022-11-20T03:23:24;101502.34;;;-1.81;100.00
60373;BME280;46216;52.220;5.134;2022-11-20T03:25:49;101494.50;;;-1.81;100.00
60373;BME280;46216;52.220;5.134;2022-11-20T03:28:15;101502.38;;;-1.83;100.00
60373;BME280;46216;52.220;5.134;2022-11-20T03:30:41;101495.44;;;-1.85;100.00
60373;BME280;46216;52.220;5.134;2022-11-20T03:33:06;101498.97;;;-1.93;100.00
60373;BME280;46216;52.220;5.134;2022-11-20T03:35:31;101495.56;;;-2.01;100.00
60373;BME280;46216;52.220;5.134;2022-11-20T03:37:57;101497.44;;;-2.12;100.00
60373;BME280;46216;52.220;5.134;2022-11-20T03:40:22;101491.31;;;-2.11;100.00
60373;BME280;46216;52.220;5.134;2022-11-20T03:42:48;101488.72;;;-2.11;100.00
60373;BME280;46216;52.220;5.134;2022-11-20T03:45:17;101487.00;;;-2.12;100.00
60373;BME280;46216;52.220;5.134;2022-11-20T03:47:43;101480.91;;;-2.14;100.00
60373;BME280;46216;52.220;5.134;2022-11-20T03:50:10;101487.84;;;-2.11;100.00
60373;BME280;46216;52.220;5.134;2022-11-20T03:52:37;101487.84;;;-2.11;100.00
60373;BME280;46216;52.220;5.134;2022-11-20T03:55:04;101483.53;;;-2.14;100.00
60373;BME280;46216;52.220;5.134;2022-11-20T03:57:29;101484.44;;;-2.18;100.00
60373;BME280;46216;52.220;5.134;2022-11-20T03:59:54;101474.00;;;-2.21;100.00
60373;BME280;46216;52.220;5.134;2022-11-20T04:02:20;101475.75;;;-2.22;100.00
60373;BME280;46216;52.220;5.134;2022-11-20T04:04:45;101474.00;;;-2.21;100.00
60373;BME280;46216;52.220;5.134;2022-11-20T04:07:10;101474.91;;;-2.22;100.00
60373;BME280;46216;52.220;5.134;2022-11-20T04:09:36;101462.75;;;-2.23;100.00
60373;BME280;46216;52.220;5.134;2022-11-20T04:12:01;101460.13;;;-2.25;100.00
60373;BME280;46216;52.220;5.134;2022-11-20T04:14:26;101459.28;;;-2.25;100.00
60373;BME280;46216;52.220;5.134;2022-11-20T04:16:51;101449.78;;;-2.31;100.00
60373;BME280;46216;52.220;5.134;2022-11-20T04:19:17;101449.81;;;-2.35;100.00
60373;BME280;46216;52.220;5.134;2022-11-20T04:21:43;101452.44;;;-2.39;100.00
60373;BME280;46216;52.220;5.134;2022-11-20T04:24:09;101457.66;;;-2.39;100.00
60373;BME280;46216;52.220;5.134;2022-11-20T04:26:35;101442.00;;;-2.39;100.00
60373;BME280;46216;52.220;5.134;2022-11-20T04:29:01;101446.38;;;-2.41;100.00
60373;BME280;46216;52.220;5.134;2022-11-20T04:31:29;101447.22;;;-2.39;100.00
60373;BME280;46216;52.220;5.134;2022-11-20T04:33:59;101445.50;;;-2.40;100.00
60373;BME280;46216;52.220;5.134;2022-11-20T04:36:26;101443.81;;;-2.44;100.00
60373;BME280;46216;52.220;5.134;2022-11-20T04:38:53;101442.03;;;-2.45;100.00
60373;BME280;46216;52.220;5.134;2022-11-20T04:41:20;101448.19;;;-2.47;100.00
60373;BME280;46216;52.220;5.134;2022-11-20T04:43:50;101455.16;;;-2.49;100.00
60373;BME280;46216;52.220;5.134;2022-11-20T04:46:17;101454.25;;;-2.47;100.00
60373;BME280;46216;52.220;5.134;2022-11-20T04:48:43;101441.25;;;-2.50;100.00
60373;BME280;46216;52.220;5.134;2022-11-20T04:51:09;101451.66;;;-2.48;100.00
60373;BME280;46216;52.220;5.134;2022-11-20T04:53:34;101442.97;;;-2.49;100.00
60373;BME280;46216;52.220;5.134;2022-11-20T04:56:05;101426.50;;;-2.54;100.00
60373;BME280;46216;52.220;5.134;2022-11-20T04:58:31;101438.66;;;-2.53;100.00
60373;BME280;46216;52.220;5.134;2022-11-20T05:01:09;101438.66;;;-2.53;100.00
60373;BME280;46216;52.220;5.134;2022-11-20T05:03:35;101436.94;;;-2.54;100.00
60373;BME280;46216;52.220;5.134;2022-11-20T05:06:01;101424.75;;;-2.55;100.00
60373;BME280;46216;52.220;5.134;2022-11-20T05:08:27;101425.63;;;-2.54;100.00
60373;BME280;46216;52.220;5.134;2022-11-20T05:10:53;101424.75;;;-2.55;100.00
60373;BME280;46216;52.220;5.134;2022-11-20T05:13:18;101420.41;;;-2.56;100.00
60373;BME280;46216;52.220;5.134;2022-11-20T05:15:43;101402.19;;;-2.62;100.00
60373;BME280;46216;52.220;5.134;2022-11-20T05:18:09;101417.03;;;-2.64;100.00
60373;BME280;46216;52.220;5.134;2022-11-20T05:20:34;101408.31;;;-2.63;100.00
60373;BME280;46216;52.220;5.134;2022-11-20T05:23:01;101403.09;;;-2.62;100.00
60373;BME280;46216;52.220;5.134;2022-11-20T05:25:27;101407.41;;;-2.60;100.00
60373;BME280;46216;52.220;5.134;2022-11-20T05:27:53;101403.94;;;-2.61;100.00
60373;BME280;46216;52.220;5.134;2022-11-20T05:30:18;101399.56;;;-2.59;100.00
60373;BME280;46216;52.220;5.134;2022-11-20T05:32:43;101400.44;;;-2.60;100.00
60373;BME280;46216;52.220;5.134;2022-11-20T05:35:08;101410.88;;;-2.60;100.00
60373;BME280;46216;52.220;5.134;2022-11-20T05:37:34;101411.75;;;-2.59;100.00
60373;BME280;46216;52.220;5.134;2022-11-20T05:39:59;101412.63;;;-2.62;100.00
60373;BME280;46216;52.220;5.134;2022-11-20T05:42:24;101415.28;;;-2.64;100.00
60373;BME280;46216;52.220;5.134;2022-11-20T05:45:00;101410.97;;;-2.69;100.00
60373;BME280;46216;52.220;5.134;2022-11-20T05:47:27;101411.81;;;-2.66;100.00
60373;BME280;46216;52.220;5.134;2022-11-20T05:49:53;101420.50;;;-2.67;100.00
60373;BME280;46216;52.220;5.134;2022-11-20T05:52:19;101413.56;;;-2.68;100.00
60373;BME280;46216;52.220;5.134;2022-11-20T05:54:44;101416.16;;;-2.66;100.00
60373;BME280;46216;52.220;5.134;2022-11-20T05:57:10;101418.78;;;-2.66;100.00
60373;BME280;46216;52.220;5.134;2022-11-20T05:59:35;101433.53;;;-2.65;100.00
60373;BME280;46216;52.220;5.134;2022-11-20T06:02:00;101430.97;;;-2.68;100.00
60373;BME280;46216;52.220;5.134;2022-11-20T06:04:26;101435.31;;;-2.67;100.00
60373;BME280;46216;52.220;5.134;2022-11-20T06:06:51;101431.84;;;-2.69;100.00
60373;BME280;46216;52.220;5.134;2022-11-20T06:09:16;101431.81;;;-2.66;100.00
60373;BME280;46216;52.220;5.134;2022-11-20T06:11:42;101427.47;;;-2.67;100.00
60373;BME280;46216;52.220;5.134;2022-11-20T06:14:07;101426.59;;;-2.66;100.00
60373;BME280;46216;52.220;5.134;2022-11-20T06:16:32;101426.59;;;-2.66;100.00
60373;BME280;46216;52.220;5.134;2022-11-20T06:18:58;101427.47;;;-2.64;100.00
60373;BME280;46216;52.220;5.134;2022-11-20T06:21:24;101430.94;;;-2.65;100.00
60373;BME280;46216;52.220;5.134;2022-11-20T06:23:50;101425.72;;;-2.65;100.00
60373;BME280;46216;52.220;5.134;2022-11-20T06:26:26;101426.59;;;-2.66;100.00
60373;BME280;46216;52.220;5.134;2022-11-20T06:28:52;101426.59;;;-2.66;100.00
60373;BME280;46216;52.220;5.134;2022-11-20T06:31:20;101427.44;;;-2.66;100.00
60373;BME280;46216;52.220;5.134;2022-11-20T06:33:46;101429.22;;;-2.65;100.00
60373;BME280;46216;52.220;5.134;2022-11-20T06:36:13;101423.16;;;-2.68;100.00
60373;BME280;46216;52.220;5.134;2022-11-20T06:38:39;101428.34;;;-2.67;100.00
60373;BME280;46216;52.220;5.134;2022-11-20T06:41:06;101421.41;;;-2.69;100.00
60373;BME280;46216;52.220;5.134;2022-11-20T06:43:32;101424.84;;;-2.66;100.00
60373;BME280;46216;52.220;5.134;2022-11-20T06:45:58;101436.16;;;-2.67;100.00
60373;BME280;46216;52.220;5.134;2022-11-20T06:48:26;101424.00;;;-2.68;100.00
60373;BME280;46216;52.220;5.134;2022-11-20T06:50:52;101427.44;;;-2.66;100.00
60373;BME280;46216;52.220;5.134;2022-11-20T06:53:18;101419.66;;;-2.67;100.00
60373;BME280;46216;52.220;5.134;2022-11-20T06:55:45;101405.75;;;-2.69;100.00
60373;BME280;46216;52.220;5.134;2022-11-20T06:58:14;101412.72;;;-2.68;100.00
60373;BME280;46216;52.220;5.134;2022-11-20T07:00:40;101412.69;;;-2.67;100.00
60373;BME280;46216;52.220;5.134;2022-11-20T07:03:08;101405.72;;;-2.66;100.00
60373;BME280;46216;52.220;5.134;2022-11-20T07:05:35;101409.22;;;-2.67;100.00
60373;BME280;46216;52.220;5.134;2022-11-20T07:08:01;101407.50;;;-2.68;100.00
60373;BME280;46216;52.220;5.134;2022-11-20T07:10:27;101415.28;;;-2.65;100.00
60373;BME280;46216;52.220;5.134;2022-11-20T07:12:53;101401.38;;;-2.64;100.00
60373;BME280;46216;52.220;5.134;2022-11-20T07:15:21;101396.16;;;-2.66;100.00
60373;BME280;46216;52.220;5.134;2022-11-20T07:17:47;101396.16;;;-2.64;100.00
60373;BME280;46216;52.220;5.134;2022-11-20T07:20:14;101394.41;;;-2.64;100.00
60373;BME280;46216;52.220;5.134;2022-11-20T07:22:40;101384.81;;;-2.63;100.00
60373;BME280;46216;52.220;5.134;2022-11-20T07:25:06;101387.41;;;-2.60;100.00
60373;BME280;46216;52.220;5.134;2022-11-20T07:27:32;101391.75;;;-2.57;100.00
60373;BME280;46216;52.220;5.134;2022-11-20T07:29:58;101395.25;;;-2.60;100.00
60373;BME280;46216;52.220;5.134;2022-11-20T07:32:24;101392.59;;;-2.57;100.00
60373;BME280;46216;52.220;5.134;2022-11-20T07:34:49;101385.59;;;-2.55;100.00
60373;BME280;46216;52.220;5.134;2022-11-20T07:37:15;101393.41;;;-2.50;100.00
60373;BME280;46216;52.220;5.134;2022-11-20T07:39:41;101403.78;;;-2.46;100.00
60373;BME280;46216;52.220;5.134;2022-11-20T07:42:07;101394.19;;;-2.42;100.00
60373;BME280;46216;52.220;5.134;2022-11-20T07:44:33;101401.09;;;-2.36;100.00
60373;BME280;46216;52.220;5.134;2022-11-20T07:46:58;101402.78;;;-2.31;100.00
60373;BME280;46216;52.220;5.134;2022-11-20T07:49:24;101407.91;;;-2.25;100.00
60373;BME280;46216;52.220;5.134;2022-11-20T07:51:52;101407.03;;;-2.21;100.00
60373;BME280;46216;52.220;5.134;2022-11-20T07:54:20;101402.56;;;-2.14;100.00
60373;BME280;46216;52.220;5.134;2022-11-20T07:56:46;101402.53;;;-2.11;100.00
60373;BME280;46216;52.220;5.134;2022-11-20T07:59:11;101397.28;;;-2.08;100.00
60373;BME280;46216;52.220;5.134;2022-11-20T08:01:40;101396.34;;;-2.04;100.00
60373;BME280;46216;52.220;5.134;2022-11-20T08:04:06;101388.47;;;-1.96;100.00
60373;BME280;46216;52.220;5.134;2022-11-20T08:06:32;101391.84;;;-1.89;100.00
60373;BME280;46216;52.220;5.134;2022-11-20T08:08:58;101389.22;;;-1.86;100.00
60373;BME280;46216;52.220;5.134;2022-11-20T08:11:23;101383.03;;;-1.81;100.00
60373;BME280;46216;52.220;5.134;2022-11-20T08:14:07;101378.63;;;-1.77;100.00
60373;BME280;46216;52.220;5.134;2022-11-20T08:16:48;101375.97;;;-1.74;100.00
60373;BME280;46216;52.220;5.134;2022-11-20T08:19:15;101372.44;;;-1.69;100.00
60373;BME280;46216;52.220;5.134;2022-11-20T08:21:41;101372.34;;;-1.64;100.00
60373;BME280;46216;52.220;5.134;2022-11-20T08:24:07;101375.78;;;-1.59;100.00
60373;BME280;46216;52.220;5.134;2022-11-20T08:26:34;101378.34;;;-1.56;100.00
60373;BME280;46216;52.220;5.134;2022-11-20T08:29:00;101378.28;;;-1.51;100.00
60373;BME280;46216;52.220;5.134;2022-11-20T08:31:26;101379.94;;;-1.46;100.00
60373;BME280;46216;52.220;5.134;2022-11-20T08:33:53;101381.59;;;-1.40;100.00
60373;BME280;46216;52.220;5.134;2022-11-20T08:36:20;101374.53;;;-1.33;100.00
60373;BME280;46216;52.220;5.134;2022-11-20T08:38:53;101367.53;;;-1.31;100.00
60373;BME280;46216;52.220;5.134;2022-11-20T08:41:20;101379.63;;;-1.24;100.00
60373;BME280;46216;52.220;5.134;2022-11-20T08:43:57;101366.50;;;-1.21;100.00
60373;BME280;46216;52.220;5.134;2022-11-20T08:46:32;101362.03;;;-1.16;100.00
60373;BME280;46216;52.220;5.134;2022-11-20T08:49:02;101370.69;;;-1.11;100.00
60373;BME280;46216;52.220;5.134;2022-11-20T08:51:28;101374.09;;;-1.06;100.00
60373;BME280;46216;52.220;5.134;2022-11-20T08:53:53;101377.47;;;-0.99;100.00
60373;BME280;46216;52.220;5.134;2022-11-20T08:56:19;101384.38;;;-0.93;100.00
60373;BME280;46216;52.220;5.134;2022-11-20T08:58:44;101384.31;;;-0.90;100.00
60373;BME280;46216;52.220;5.134;2022-11-20T09:01:10;101386.03;;;-0.89;100.00
60373;BME280;46216;52.220;5.134;2022-11-20T09:03:36;101384.16;;;-0.81;100.00
60373;BME280;46216;52.220;5.134;2022-11-20T09:06:03;101382.31;;;-0.76;100.00
60373;BME280;46216;52.220;5.134;2022-11-20T09:08:30;101366.53;;;-0.70;100.00
60373;BME280;46216;52.220;5.134;2022-11-20T09:10:56;101357.72;;;-0.66;100.00
60373;BME280;46216;52.220;5.134;2022-11-20T09:13:22;101357.63;;;-0.60;100.00
60373;BME280;46216;52.220;5.134;2022-11-20T09:16:03;101351.44;;;-0.56;100.00
60373;BME280;46216;52.220;5.134;2022-11-20T09:18:29;101342.59;;;-0.50;100.00
60373;BME280;46216;52.220;5.134;2022-11-20T09:21:01;101346.03;;;-0.46;100.00
60373;BME280;46216;52.220;5.134;2022-11-20T09:23:27;101345.06;;;-0.42;100.00
60373;BME280;46216;52.220;5.134;2022-11-20T09:25:55;101339.66;;;-0.35;100.00
60373;BME280;46216;52.220;5.134;2022-11-20T09:28:25;101337.78;;;-0.28;100.00
60373;BME280;46216;52.220;5.134;2022-11-20T09:30:50;101328.97;;;-0.24;100.00
60373;BME280;46216;52.220;5.134;2022-11-20T09:33:15;101322.88;;;-0.23;100.00
60373;BME280;46216;52.220;5.134;2022-11-20T09:35:40;101318.31;;;-0.15;100.00
60373;BME280;46216;52.220;5.134;2022-11-20T09:38:07;101316.50;;;-0.10;100.00
60373;BME280;46216;52.220;5.134;2022-11-20T09:40:34;101323.38;;;-0.06;100.00
60373;BME280;46216;52.220;5.134;2022-11-20T09:46:05;101306.53;;;0.06;100.00
60373;BME280;46216;52.220;5.134;2022-11-20T09:51:41;101307.19;;;0.16;100.00
60373;BME280;46216;52.220;5.134;2022-11-20T09:54:19;101295.72;;;0.21;100.00
60373;BME280;46216;52.220;5.134;2022-11-20T09:56:50;101295.53;;;0.29;100.00
60373;BME280;46216;52.220;5.134;2022-11-20T09:59:36;101292.84;;;0.32;100.00
60373;BME280;46216;52.220;5.134;2022-11-20T10:02:15;101280.47;;;0.37;100.00
60373;BME280;46216;52.220;5.134;2022-11-20T10:04:47;101294.50;;;0.36;100.00
60373;BME280;46216;52.220;5.134;2022-11-20T10:07:20;101282.97;;;0.43;100.00
60373;BME280;46216;52.220;5.134;2022-11-20T10:09:53;101286.28;;;0.52;100.00
60373;BME280;46216;52.220;5.134;2022-11-20T10:12:29;101280.91;;;0.56;100.00
60373;BME280;46216;52.220;5.134;2022-11-20T10:15:10;101278.16;;;0.61;100.00
60373;BME280;46216;52.220;5.134;2022-11-20T10:18:03;101271.06;;;0.66;100.00
60373;BME280;46216;52.220;5.134;2022-11-20T10:26:39;101253.19;;;0.82;100.00
60373;BME280;46216;52.220;5.134;2022-11-20T10:29:19;101250.38;;;0.88;100.00
60373;BME280;46216;52.220;5.134;2022-11-20T10:31:54;101242.34;;;0.96;100.00
60373;BME280;46216;52.220;5.134;2022-11-20T10:34:26;101230.00;;;0.98;100.00
60373;BME280;46216;52.220;5.134;2022-11-20T10:36:57;101222.81;;;1.06;100.00
60373;BME280;46216;52.220;5.134;2022-11-20T10:39:35;101224.38;;;1.11;100.00
60373;BME280;46216;52.220;5.134;2022-11-20T10:42:09;101209.47;;;1.13;100.00
60373;BME280;46216;52.220;5.134;2022-11-20T10:44:36;101206.63;;;1.21;100.00
60373;BME280;46216;52.220;5.134;2022-11-20T10:47:20;101201.13;;;1.30;100.00
60373;BME280;46216;52.220;5.134;2022-11-20T10:49:51;101207.13;;;1.34;100.00
60373;BME280;46216;52.220;5.134;2022-11-20T10:54:56;101200.63;;;1.47;100.00
60373;BME280;46216;52.220;5.134;2022-11-20T11:00:07;101178.53;;;1.54;100.00
60373;BME280;46216;52.220;5.134;2022-11-20T11:02:56;101172.38;;;1.55;100.00
60373;BME280;46216;52.220;5.134;2022-11-20T11:05:38;101168.69;;;1.61;100.00
60373;BME280;46216;52.220;5.134;2022-11-20T11:08:11;101169.56;;;1.61;100.00
60373;BME280;46216;52.220;5.134;2022-11-20T11:10:56;101156.34;;;1.64;100.00
60373;BME280;46216;52.220;5.134;2022-11-20T11:13:27;101156.19;;;1.69;100.00
60373;BME280;46216;52.220;5.134;2022-11-20T11:15:53;101156.84;;;1.76;100.00
60373;BME280;46216;52.220;5.134;2022-11-20T11:18:30;101140.13;;;1.78;100.00
60373;BME280;46216;52.220;5.134;2022-11-20T11:20:58;101143.47;;;1.83;100.00
60373;BME280;46216;52.220;5.134;2022-11-20T11:23:33;101138.22;;;1.83;100.00
60373;BME280;46216;52.220;5.134;2022-11-20T11:26:00;101135.41;;;1.89;100.00
60373;BME280;46216;52.220;5.134;2022-11-20T11:28:27;101126.50;;;1.94;100.00
60373;BME280;46216;52.220;5.134;2022-11-20T11:30:53;101127.22;;;1.99;100.00
60373;BME280;46216;52.220;5.134;2022-11-20T11:33:29;101118.31;;;2.03;100.00
60373;BME280;46216;52.220;5.134;2022-11-20T11:36:00;101116.63;;;2.02;100.00
60373;BME280;46216;52.220;5.134;2022-11-20T11:38:38;101109.41;;;2.07;100.00
60373;BME280;46216;52.220;5.134;2022-11-20T11:41:06;101106.75;;;2.08;100.00
60373;BME280;46216;52.220;5.134;2022-11-20T11:43:34;101097.94;;;2.09;100.00
60373;BME280;46216;52.220;5.134;2022-11-20T11:46:32;101097.03;;;2.10;100.00
60373;BME280;46216;52.220;5.134;2022-11-20T11:49:15;101090.03;;;2.11;100.00
60373;BME280;46216;52.220;5.134;2022-11-20T11:54:20;101091.78;;;2.10;100.00
60373;BME280;46216;52.220;5.134;2022-11-20T11:56:48;101087.22;;;2.16;100.00
60373;BME280;46216;52.220;5.134;2022-11-20T12:02:22;101081.78;;;2.22;100.00
60373;BME280;46216;52.220;5.134;2022-11-20T12:04:58;101073.72;;;2.26;100.00
60373;BME280;46216;52.220;5.134;2022-11-20T12:07:41;101071.91;;;2.28;100.00
60373;BME280;46216;52.220;5.134;2022-11-20T12:10:21;101065.72;;;2.29;100.00
60373;BME280;46216;52.220;5.134;2022-11-20T12:12:53;101064.81;;;2.30;100.00
60373;BME280;46216;52.220;5.134;2022-11-20T12:15:33;101066.31;;;2.37;100.00
60373;BME280;46216;52.220;5.134;2022-11-20T12:18:00;101063.56;;;2.41;100.00
60373;BME280;46216;52.220;5.134;2022-11-20T12:20:29;101055.66;;;2.41;100.00
60373;BME280;46216;52.220;5.134;2022-11-20T12:23:17;101045.25;;;2.37;100.00
60373;BME280;46216;52.220;5.134;2022-11-20T12:25:48;101038.06;;;2.43;100.00
60373;BME280;46216;52.220;5.134;2022-11-20T12:31:13;101024.22;;;2.37;100.00
60373;BME280;46216;52.220;5.134;2022-11-20T12:33:44;101023.78;;;2.50;100.00
60373;BME280;46216;52.220;5.134;2022-11-20T12:39:07;101026.41;;;2.50;100.00
60373;BME280;46216;52.220;5.134;2022-11-20T12:41:44;101014.00;;;2.53;100.00
60373;BME280;46216;52.220;5.134;2022-11-20T13:01:36;100954.69;;;2.68;100.00
60373;BME280;46216;52.220;5.134;2022-11-20T13:07:08;100956.34;;;2.71;100.00
60373;BME280;46216;52.220;5.134;2022-11-20T13:09:40;100961.56;;;2.72;100.00
60373;BME280;46216;52.220;5.134;2022-11-20T13:14:46;100966.72;;;2.75;100.00
60373;BME280;46216;52.220;5.134;2022-11-20T13:20:06;100949.09;;;2.77;100.00
60373;BME280;46216;52.220;5.134;2022-11-20T13:22:49;100948.16;;;2.78;100.00
60373;BME280;46216;52.220;5.134;2022-11-20T13:25:27;100946.41;;;2.79;100.00
60373;BME280;46216;52.220;5.134;2022-11-20T13:27:53;100950.56;;;2.84;100.00
60373;BME280;46216;52.220;5.134;2022-11-20T13:30:26;100940.88;;;2.85;100.00
60373;BME280;46216;52.220;5.134;2022-11-20T13:33:08;100955.72;;;2.88;100.00
60373;BME280;46216;52.220;5.134;2022-11-20T13:35:37;100957.47;;;2.87;100.00
60373;BME280;46216;52.220;5.134;2022-11-20T13:38:07;100943.34;;;2.90;100.00
60373;BME280;46216;52.220;5.134;2022-11-20T13:40:36;100925.03;;;2.87;100.00
60373;BME280;46216;52.220;5.134;2022-11-20T13:43:27;100922.41;;;2.87;100.00
60373;BME280;46216;52.220;5.134;2022-11-20T13:46:05;100912.94;;;2.82;100.00
60373;BME280;46216;52.220;5.134;2022-11-20T13:48:34;100905.69;;;2.88;100.00
60373;BME280;46216;52.220;5.134;2022-11-20T13:54:09;100905.81;;;2.84;100.00